Time;durP1;ratioP1;P1;durP2;ratioP2;P2;SDS_P1;SDS_P2;PMS_P1;PMS_P2;Temp;Humidity;BMP_temperature;BMP_pressure;BME280_temperature;BME280_humidity;BME280_pressure;Samples;Min_cycle;Max_cycle;Signal;HPM_P1;HPM_P2
2023/04/02 00:00:17;;;;;;;25.17;13.18;;;;;;;1.70;71.37;101713.75;4898453;28;20052;-56
2023/04/02 00:03:02;;;;;;;23.83;12.82;;;;;;;2.18;71.05;101789.66;4894895;28;20079;-58
2023/04/02 00:05:54;;;;;;;29.65;13.80;;;;;;;2.15;70.92;101780.97;4896194;28;20143;-57
2023/04/02 00:08:29;;;;;;;29.92;14.00;;;;;;;2.25;70.67;101784.81;4888031;28;20504;-57
2023/04/02 00:11:02;;;;;;;26.83;12.63;;;;;;;1.87;69.98;101700.69;4903938;28;20052;-58
2023/04/02 00:13:40;;;;;;;29.45;15.10;;;;;;;2.56;69.74;101768.88;4903661;28;20102;-55
2023/04/02 00:16:15;;;;;;;36.83;16.38;;;;;;;2.73;69.14;101786.75;4894990;28;20470;-58
2023/04/02 00:18:50;;;;;;;31.90;16.23;;;;;;;2.91;68.69;101777.16;4895063;28;20050;-58
2023/04/02 00:21:25;;;;;;;26.30;15.15;;;;;;;2.88;68.77;101777.03;4904367;28;20048;-58
2023/04/02 00:23:57;;;;;;;28.33;15.55;;;;;;;2.90;68.54;101770.25;4896050;28;20792;-57
2023/04/02 00:26:34;;;;;;;26.80;15.00;;;;;;;2.52;68.30;101715.41;4905567;28;20076;-58
2023/04/02 00:29:05;;;;;;;27.10;14.70;;;;;;;3.00;68.56;101777.53;4899439;28;20064;-58
2023/04/02 00:31:41;;;;;;;34.60;14.70;;;;;;;3.17;68.73;101769.50;4906144;28;21738;-58
2023/04/02 00:34:18;;;;;;;32.25;15.07;;;;;;;3.15;67.64;101771.19;4904115;28;20049;-58
2023/04/02 00:36:50;;;;;;;27.90;14.52;;;;;;;2.89;67.88;101701.34;4893441;28;20052;-58
2023/04/02 00:39:24;;;;;;;28.38;14.82;;;;;;;3.20;66.82;101759.31;4903945;28;20059;-58
2023/04/02 00:42:03;;;;;;;30.35;14.77;;;;;;;3.11;67.07;101723.69;4898700;28;20135;-58
2023/04/02 00:44:42;;;;;;;29.45;14.40;;;;;;;3.46;67.14;101766.31;4893172;28;20044;-58
2023/04/02 00:47:19;;;;;;;28.60;13.07;;;;;;;3.55;67.51;101736.47;4904360;28;20045;-57
2023/04/02 00:49:56;;;;;;;22.80;12.63;;;;;;;3.79;66.62;101763.19;4895577;28;20383;-58
2023/04/02 00:52:30;;;;;;;25.65;13.00;;;;;;;3.96;66.46;101757.72;4894477;28;20056;-55
2023/04/02 00:55:07;;;;;;;28.88;14.07;;;;;;;4.14;66.19;101753.16;4903439;28;20048;-55
2023/04/02 00:57:43;;;;;;;31.70;13.10;;;;;;;4.25;65.74;101749.25;4894950;28;20403;-55
2023/04/02 01:00:24;;;;;;;25.20;13.25;;;;;;;4.42;65.49;101746.31;4902260;28;20053;-54
2023/04/02 01:03:29;;;;;;;31.13;13.63;;;;;;;4.45;65.07;101756.78;4897272;28;20054;-53
2023/04/02 01:06:03;;;;;;;28.45;12.95;;;;;;;4.27;64.91;101737.25;4894100;28;20101;-55
2023/04/02 01:08:53;;;;;;;25.65;14.02;;;;;;;4.43;65.26;101748.09;4903897;28;20056;-55
2023/04/02 01:11:43;;;;;;;32.35;13.30;;;;;;;4.56;65.05;101755.41;4891138;28;20064;-54
2023/04/02 01:14:18;;;;;;;;;;;;;;;4.68;65.31;101748.03;4892017;28;20311;-55
2023/04/02 01:16:53;;;;;;;29.27;13.45;;;;;;;4.59;64.16;101739.97;4905606;28;20636;-55
2023/04/02 01:20:06;;;;;;;23.27;12.93;;;;;;;4.62;65.50;101744.38;4901643;28;20061;-54
2023/04/02 01:22:46;;;;;;;26.67;14.32;;;;;;;4.69;64.57;101726.50;4850069;28;21088;-55
2023/04/02 01:25:19;;;;;;;;;;;;;;;4.73;64.87;101738.72;4895007;28;20052;-55
2023/04/02 01:27:57;;;;;;;24.15;13.23;;;;;;;4.71;64.25;101730.00;4903721;28;19966;-55
2023/04/02 01:30:29;;;;;;;26.83;13.80;;;;;;;4.40;64.48;101655.72;4895269;28;20098;-55
2023/04/02 01:33:00;;;;;;;28.67;14.57;;;;;;;4.79;64.45;101726.78;4903288;28;20053;-55
2023/04/02 01:35:36;;;;;;;25.63;13.13;;;;;;;5.05;64.88;101725.88;4905056;28;20406;-54
2023/04/02 01:38:12;;;;;;;29.73;14.25;;;;;;;4.87;64.82;101678.72;4894163;28;20406;-55
2023/04/02 01:40:50;;;;;;;27.50;16.25;;;;;;;5.13;64.05;101719.19;4904522;28;20056;-55
2023/04/02 01:43:26;;;;;;;32.33;16.30;;;;;;;5.03;63.67;101706.78;4893828;28;20611;-55
2023/04/02 01:46:00;;;;;;;34.83;16.77;;;;;;;5.13;63.63;101708.81;4894063;28;20056;-55
2023/04/02 01:48:32;;;;;;;29.20;16.13;;;;;;;5.24;63.32;101716.94;4902392;28;20063;-55
2023/04/02 01:51:08;;;;;;;34.05;18.35;;;;;;;5.12;63.46;101701.91;4904972;28;20052;-55
2023/04/02 01:53:38;;;;;;;33.42;18.02;;;;;;;5.20;63.81;101709.88;4894111;28;20063;-55
2023/04/02 01:56:09;;;;;;;32.83;17.95;;;;;;;5.34;64.30;101707.66;4905440;28;20154;-55
2023/04/02 01:58:39;;;;;;;28.10;14.95;;;;;;;5.42;62.65;101701.00;4901794;28;20072;-55
2023/04/02 02:01:16;;;;;;;29.83;15.85;;;;;;;5.47;62.15;101695.94;4902173;28;20048;-54
2023/04/02 02:03:47;;;;;;;28.10;16.35;;;;;;;4.86;62.45;101583.69;4891630;28;20403;-55
2023/04/02 02:06:19;;;;;;;33.05;15.40;;;;;;;5.11;61.53;101624.97;4903156;28;20044;-54
2023/04/02 02:08:54;;;;;;;35.28;15.90;;;;;;;5.60;62.12;101685.94;4901346;28;20075;-58
2023/04/02 02:11:29;;;;;;;32.42;16.00;;;;;;;5.77;62.79;101683.78;4897641;28;20057;-57
2023/04/02 02:14:01;;;;;;;27.77;14.73;;;;;;;5.70;62.49;101644.69;4903927;28;20078;-57
2023/04/02 02:16:40;;;;;;;36.40;16.98;;;;;;;6.04;61.83;101683.66;4902735;28;20064;-57
2023/04/02 02:19:23;;;;;;;30.65;16.95;;;;;;;6.24;61.88;101681.56;4891865;28;20362;-55
2023/04/02 02:21:55;;;;;;;30.42;15.82;;;;;;;6.27;61.60;101665.16;4894150;28;20049;-54
2023/04/02 02:24:30;;;;;;;32.72;16.40;;;;;;;6.33;61.00;101675.69;4892985;28;20049;-55
2023/04/02 02:27:18;;;;;;;31.35;16.25;;;;;;;6.38;60.62;101674.06;4902262;28;20066;-55
2023/04/02 02:29:53;;;;;;;37.65;17.58;;;;;;;6.38;60.60;101681.00;4892171;28;20082;-55
2023/04/02 02:32:29;;;;;;;41.05;17.45;;;;;;;6.56;61.87;101673.59;4901881;28;20058;-55
2023/04/02 02:35:08;;;;;;;34.33;16.50;;;;;;;6.59;60.84;101672.81;4902606;28;20538;-55
2023/04/02 02:37:44;;;;;;;30.38;15.60;;;;;;;6.55;59.81;101661.47;4894068;28;20052;-55
2023/04/02 02:40:20;;;;;;;24.33;16.33;;;;;;;6.58;59.75;101660.69;4899402;28;20062;-56
2023/04/02 02:42:55;;;;;;;33.13;16.85;;;;;;;6.44;59.98;101643.06;4902280;28;20110;-57
2023/04/02 02:45:29;;;;;;;32.88;15.77;;;;;;;6.42;61.32;101618.78;4890856;28;20063;-57
2023/04/02 02:48:03;;;;;;;26.05;14.63;;;;;;;6.77;60.27;101647.25;4902401;28;20044;-57
2023/04/02 02:50:35;;;;;;;26.10;14.73;;;;;;;6.64;59.63;101640.00;4904794;28;20045;-57
2023/04/02 02:53:14;;;;;;;29.85;13.48;;;;;;;6.61;59.49;101624.38;4892904;28;20048;-57
2023/04/02 02:55:46;;;;;;;30.35;15.40;;;;;;;6.54;59.82;101640.66;4897694;28;20050;-56
2023/04/02 02:58:22;;;;;;;30.15;13.93;;;;;;;6.66;59.36;101622.75;4895677;28;20060;-57
2023/04/02 03:00:53;;;;;;;29.60;13.77;;;;;;;6.63;59.75;101620.09;4906383;28;20052;-56
2023/04/02 03:03:31;;;;;;;25.48;13.52;;;;;;;6.82;59.87;101624.84;4904826;28;20046;-57
2023/04/02 03:06:05;;;;;;;27.85;14.30;;;;;;;7.05;60.01;101627.03;4905404;28;20059;-56
2023/04/02 03:08:40;;;;;;;25.63;13.45;;;;;;;7.12;59.03;101631.50;4896980;28;20072;-56
2023/04/02 03:11:18;;;;;;;23.08;12.45;;;;;;;7.16;59.24;101606.44;4905617;28;20238;-56
2023/04/02 03:13:51;;;;;;;27.38;13.25;;;;;;;7.28;58.93;101610.13;4897098;28;20443;-56
2023/04/02 03:16:27;;;;;;;26.00;13.07;;;;;;;7.32;58.81;101606.75;4906989;28;20072;-56
2023/04/02 03:19:08;;;;;;;28.35;13.65;;;;;;;7.40;58.01;101599.09;4896577;28;20052;-57
2023/04/02 03:21:47;;;;;;;29.05;13.73;;;;;;;7.60;57.48;101595.97;4895257;28;20387;-56
2023/04/02 03:24:23;;;;;;;22.10;12.98;;;;;;;7.70;57.45;101598.75;4896889;28;20048;-57
2023/04/02 03:27:00;;;;;;;23.80;12.43;;;;;;;7.90;59.07;101580.84;4905646;28;20503;-56
2023/04/02 03:29:34;;;;;;;21.17;12.38;;;;;;;7.94;57.47;101574.00;4906080;28;20463;-57
2023/04/02 03:32:08;;;;;;;23.05;11.90;;;;;;;8.05;55.99;101568.94;4902492;28;20073;-56
2023/04/02 03:34:45;;;;;;;21.45;12.00;;;;;;;8.23;56.89;101571.78;4906682;28;20040;-57
2023/04/02 03:37:21;;;;;;;27.95;12.13;;;;;;;8.12;53.98;101571.66;4896915;28;20041;-57
2023/04/02 03:39:56;;;;;;;31.70;14.98;;;;;;;8.28;56.88;101558.84;4894544;28;20451;-57
2023/04/02 03:42:31;;;;;;;23.63;13.43;;;;;;;8.43;55.46;101572.09;4895337;28;20144;-57
2023/04/02 03:45:05;;;;;;;21.25;11.40;;;;;;;8.09;53.68;101561.19;4906725;28;20052;-57
2023/04/02 03:47:40;;;;;;;26.50;12.30;;;;;;;7.69;54.11;101550.19;4897440;28;20056;-57
2023/04/02 03:50:17;;;;;;;26.48;12.15;;;;;;;7.59;54.44;101548.28;4904382;28;20060;-55
2023/04/02 03:52:48;;;;;;;22.77;11.57;;;;;;;7.60;55.19;101555.22;4896249;28;20053;-58
2023/04/02 03:55:22;;;;;;;26.30;12.75;;;;;;;7.16;56.97;101490.34;4905565;28;20061;-57
2023/04/02 03:58:02;;;;;;;21.08;12.25;;;;;;;7.70;55.56;101549.31;4906338;28;20044;-58
2023/04/02 04:00:39;;;;;;;25.38;12.52;;;;;;;7.77;57.72;101506.94;4893948;28;20055;-56
2023/04/02 04:03:15;;;;;;;22.38;12.30;;;;;;;8.17;57.24;101536.13;4895738;28;20052;-57
2023/04/02 04:05:51;;;;;;;28.98;11.85;;;;;;;8.26;56.46;101532.78;4895136;28;20070;-57
2023/04/02 04:08:26;;;;;;;22.75;12.18;;;;;;;8.26;56.45;101518.88;4904541;28;20052;-56
2023/04/02 04:10:59;;;;;;;22.13;11.35;;;;;;;8.48;56.91;101538.31;4896338;28;20063;-57
2023/04/02 04:13:35;;;;;;;19.92;11.63;;;;;;;8.67;56.63;101531.59;4905834;28;20048;-57
2023/04/02 04:16:10;;;;;;;25.38;11.18;;;;;;;8.83;56.00;101523.06;4895881;28;20057;-57
2023/04/02 04:18:47;;;;;;;58.20;25.25;;;;;;;8.79;54.77;101513.50;4904599;28;20056;-57
2023/04/02 04:21:29;;;;;;;40.40;18.70;;;;;;;8.52;55.02;101482.78;4895648;28;20044;-57
2023/04/02 04:24:04;;;;;;;30.55;11.10;;;;;;;8.31;53.10;101483.34;4895215;28;20491;-57
2023/04/02 04:26:42;;;;;;;52.38;23.02;;;;;;;8.55;55.12;101514.09;4896863;28;20050;-56
2023/04/02 04:29:26;;;;;;;21.60;11.30;;;;;;;8.48;55.29;101500.09;4905270;28;20151;-57
2023/04/02 04:32:00;;;;;;;18.08;9.68;;;;;;;8.65;54.95;101510.72;4895218;28;20071;-57
2023/04/02 04:34:41;;;;;;;29.42;13.02;;;;;;;8.73;55.63;101513.41;4903678;28;20048;-58
2023/04/02 04:37:24;;;;;;;24.67;11.38;;;;;;;8.79;55.34;101513.50;4893939;28;20049;-57
2023/04/02 04:39:58;;;;;;;16.23;9.18;;;;;;;8.70;54.20;101482.13;4892833;28;20053;-57
2023/04/02 04:42:32;;;;;;;19.90;8.90;;;;;;;8.77;52.75;101510.88;4904932;28;20569;-58
2023/04/02 04:45:14;;;;;;;16.60;8.80;;;;;;;8.26;52.74;101474.63;4902985;28;20048;-60
2023/04/02 04:47:53;;;;;;;17.35;8.82;;;;;;;8.44;54.95;101490.53;4891279;28;20204;-60
2023/04/02 04:50:31;;;;;;;19.25;8.07;;;;;;;8.57;53.79;101502.81;4904491;28;20430;-57
2023/04/02 04:53:14;;;;;;;13.82;7.82;;;;;;;8.26;51.80;101464.19;4894146;28;20056;-56
2023/04/02 04:55:47;;;;;;;14.27;7.57;;;;;;;8.14;51.89;101491.84;4889677;28;20447;-57
2023/04/02 04:58:23;;;;;;;17.25;7.45;;;;;;;8.04;52.77;101473.44;4904819;28;20378;-57
2023/04/02 05:01:04;;;;;;;14.55;7.22;;;;;;;7.50;51.59;101389.47;4904717;28;20223;-56
2023/04/02 05:03:39;;;;;;;18.77;7.43;;;;;;;7.85;52.26;101482.75;4897349;28;20065;-58
2023/04/02 05:06:16;;;;;;;20.45;8.48;;;;;;;7.20;52.19;101372.56;4905283;28;20106;-57
2023/04/02 05:08:52;;;;;;;16.48;8.23;;;;;;;7.88;52.63;101464.56;4893795;28;20079;-57
2023/04/02 05:11:29;;;;;;;14.55;7.57;;;;;;;8.03;51.85;101482.13;4903130;28;20070;-57
2023/04/02 05:14:04;;;;;;;22.80;8.82;;;;;;;8.25;54.16;101478.09;4894816;28;20048;-60
2023/04/02 05:16:39;;;;;;;19.77;8.15;;;;;;;8.16;51.31;101469.31;4899586;28;20053;-57
2023/04/02 05:19:15;;;;;;;16.67;8.30;;;;;;;8.10;50.87;101474.41;4904419;28;20417;-58
2023/04/02 05:21:50;;;;;;;17.20;8.18;;;;;;;7.98;51.69;101464.72;4893450;28;20453;-59
2023/04/02 05:24:53;;;;;;;15.80;7.20;;;;;;;8.16;51.93;101476.22;4904016;28;20530;-57
2023/04/02 05:27:34;;;;;;;17.33;8.77;;;;;;;8.45;54.70;101461.00;4900804;28;20068;-57
2023/04/02 05:30:13;;;;;;;15.82;8.98;;;;;;;8.86;57.49;101452.72;4897254;28;20057;-57
2023/04/02 05:32:51;;;;;;;15.48;8.18;;;;;;;9.04;54.54;101479.00;4900996;28;20057;-57
2023/04/02 05:35:28;;;;;;;14.43;7.25;;;;;;;8.99;54.51;101428.53;4892835;28;20055;-57
2023/04/02 05:38:03;;;;;;;14.85;6.55;;;;;;;9.28;51.37;101462.69;4872305;28;20090;-59
2023/04/02 05:40:40;;;;;;;13.48;6.80;;;;;;;9.30;51.73;101467.91;4898714;28;20065;-58
2023/04/02 05:43:16;;;;;;;11.63;6.00;;;;;;;9.27;51.19;101449.63;4903526;28;20094;-58
2023/04/02 05:45:55;;;;;;;20.17;10.40;;;;;;;9.12;54.02;101455.59;4893764;28;21343;-58
2023/04/02 05:48:31;;;;;;;23.45;10.63;;;;;;;8.93;53.72;101459.75;4892668;28;20059;-58
2023/04/02 05:51:04;;;;;;;22.85;9.90;;;;;;;8.76;55.07;101461.31;4903945;28;20056;-59
2023/04/02 05:53:38;;;;;;;21.50;10.02;;;;;;;8.29;56.23;101380.94;4897262;28;20060;-59
2023/04/02 05:56:18;;;;;;;28.90;15.45;;;;;;;8.77;55.32;101457.88;4902174;28;20056;-59
2023/04/02 05:58:56;;;;;;;23.55;12.05;;;;;;;8.50;55.42;101448.91;4894149;28;20074;-57
2023/04/02 06:01:36;;;;;;;20.13;9.95;;;;;;;8.39;55.14;101461.81;4894347;28;20402;-58
2023/04/02 06:04:17;;;;;;;20.50;9.43;;;;;;;8.30;56.04;101460.78;4894214;28;20053;-58
2023/04/02 06:06:57;;;;;;;26.35;10.10;;;;;;;8.23;56.53;101458.97;4893408;28;20083;-58
2023/04/02 06:09:39;;;;;;;21.20;9.70;;;;;;;8.06;55.45;101466.56;4894646;28;20071;-58
2023/04/02 06:12:20;;;;;;;18.98;9.85;;;;;;;7.92;55.93;101463.78;4892188;28;20048;-59
2023/04/02 06:14:55;;;;;;;24.45;10.43;;;;;;;7.80;56.53;101453.19;4891008;28;20065;-57
2023/04/02 06:17:29;;;;;;;23.17;9.80;;;;;;;7.80;57.01;101454.06;4902138;28;20056;-60
2023/04/02 06:20:03;;;;;;;21.85;9.52;;;;;;;7.44;56.86;101429.28;4904646;28;20445;-59
2023/04/02 06:22:37;;;;;;;20.25;9.95;;;;;;;7.46;56.47;101457.88;4901708;28;20057;-59
2023/04/02 06:25:18;;;;;;;19.38;10.02;;;;;;;7.42;57.38;101451.78;4902352;28;20130;-59
2023/04/02 06:27:51;;;;;;;23.45;10.57;;;;;;;7.35;58.50;101456.00;4894606;28;20048;-59
2023/04/02 06:30:29;;;;;;;29.38;11.48;;;;;;;7.15;58.87;101448.72;4904305;28;20052;-59
2023/04/02 06:32:59;;;;;;;20.98;9.90;;;;;;;7.13;59.10;101457.34;4896314;28;20118;-59
2023/04/02 06:35:30;;;;;;;25.10;11.63;;;;;;;7.15;59.45;101457.41;4908588;28;20127;-59
2023/04/02 06:38:05;;;;;;;26.98;13.70;;;;;;;6.95;58.61;101453.59;4908373;28;20071;-59
2023/04/02 06:40:43;;;;;;;25.30;13.50;;;;;;;6.79;59.11;101457.63;4897202;28;20061;-58
2023/04/02 06:43:21;;;;;;;20.35;10.50;;;;;;;6.52;59.17;101447.63;4907040;28;20080;-60
2023/04/02 06:45:58;;;;;;;22.00;9.82;;;;;;;6.58;60.23;101463.31;4896611;28;20299;-58
2023/04/02 06:48:32;;;;;;;25.40;10.75;;;;;;;6.66;60.39;101466.91;4898094;28;20151;-59
2023/04/02 06:51:07;;;;;;;21.75;11.00;;;;;;;6.61;59.95;101464.22;4906486;28;20131;-58
2023/04/02 06:53:42;;;;;;;24.02;10.50;;;;;;;6.47;60.45;101470.91;4890586;28;20312;-60
2023/04/02 06:56:23;;;;;;;21.38;11.65;;;;;;;6.12;60.55;101441.63;4907685;28;20135;-59
2023/04/02 06:58:53;;;;;;;30.33;11.75;;;;;;;6.05;60.52;101472.63;4896938;28;20120;-58
2023/04/02 07:01:34;;;;;;;24.02;10.82;;;;;;;5.93;61.35;101467.13;4899171;28;20046;-59
2023/04/02 07:04:05;;;;;;;20.80;10.73;;;;;;;5.80;62.20;101475.50;4901777;28;21203;-59
2023/04/02 07:06:35;;;;;;;26.25;10.60;;;;;;;5.83;62.10;101472.97;4907053;28;20099;-59
2023/04/02 07:09:10;;;;;;;22.48;10.77;;;;;;;5.62;62.25;101471.63;4905302;28;20060;-59
2023/04/02 07:11:40;;;;;;;18.95;10.68;;;;;;;5.59;62.93;101487.13;4906576;28;20066;-59
2023/04/02 07:14:13;;;;;;;20.30;10.93;;;;;;;5.42;63.17;101485.84;4907221;28;20060;-58
2023/04/02 07:16:45;;;;;;;26.02;11.65;;;;;;;5.29;63.15;101476.00;4907445;28;20060;-60
2023/04/02 07:19:21;;;;;;;23.20;11.68;;;;;;;5.00;63.01;101452.84;4895096;28;20049;-60
2023/04/02 07:21:51;;;;;;;24.77;11.43;;;;;;;5.09;64.29;101484.19;4907258;28;20040;-60
2023/04/02 07:24:21;;;;;;;24.70;10.98;;;;;;;5.09;64.38;101473.81;4907144;28;20075;-60
2023/04/02 07:26:53;;;;;;;26.67;10.73;;;;;;;5.02;64.08;101471.91;4906537;28;20044;-59
2023/04/02 07:29:23;;;;;;;25.23;10.30;;;;;;;5.02;64.71;101487.44;4906902;28;20052;-60
2023/04/02 07:31:55;;;;;;;23.63;11.60;;;;;;;4.94;64.27;101488.94;4905246;28;20057;-59
2023/04/02 07:34:26;;;;;;;26.98;11.45;;;;;;;4.65;64.40;101470.94;4905699;28;20049;-60
2023/04/02 07:36:57;;;;;;;23.67;11.23;;;;;;;4.70;65.28;101489.19;4905981;28;20053;-60
2023/04/02 07:39:28;;;;;;;24.40;11.10;;;;;;;4.70;65.66;101490.06;4905808;28;20486;-59
2023/04/02 07:42:01;;;;;;;24.77;11.07;;;;;;;4.52;65.72;101489.56;4906064;28;20059;-59
2023/04/02 07:44:31;;;;;;;31.10;10.88;;;;;;;4.48;66.03;101483.41;4904072;28;20609;-58
2023/04/02 07:47:04;;;;;;;23.75;10.80;;;;;;;4.26;66.76;101492.25;4905721;28;20102;-59
2023/04/02 07:49:34;;;;;;;28.40;11.13;;;;;;;4.12;67.21;101483.25;4901704;28;20460;-60
2023/04/02 07:52:05;;;;;;;32.53;12.75;;;;;;;4.02;67.29;101486.34;4908510;28;20941;-59
2023/04/02 07:54:37;;;;;;;24.73;11.00;;;;;;;3.91;67.63;101490.34;4904343;28;20395;-60
2023/04/02 07:57:07;;;;;;;28.17;11.20;;;;;;;3.71;68.48;101459.56;4904697;28;20094;-59
2023/04/02 07:59:41;;;;;;;23.67;11.65;;;;;;;3.91;68.55;101487.75;4905713;28;20075;-59
2023/04/02 08:02:21;;;;;;;19.98;10.60;;;;;;;3.80;68.45;101480.56;4902044;28;20157;-59
2023/04/02 08:04:53;;;;;;;22.70;11.50;;;;;;;3.46;68.63;101440.72;4894325;28;20743;-60
2023/04/02 08:07:25;;;;;;;26.75;11.32;;;;;;;3.61;68.74;101488.56;4903115;28;20439;-59
2023/04/02 08:09:56;;;;;;;34.88;11.65;;;;;;;3.42;69.25;101490.56;4906039;28;20071;-59
2023/04/02 08:12:28;;;;;;;24.25;11.00;;;;;;;3.38;69.82;101493.00;4904710;28;20064;-58
2023/04/02 08:14:59;;;;;;;20.92;11.30;;;;;;;3.29;70.16;101501.31;4905770;28;20069;-58
2023/04/02 08:17:33;;;;;;;27.42;13.93;;;;;;;3.15;70.70;101490.53;4905759;28;20157;-59
2023/04/02 08:20:06;;;;;;;36.42;15.60;;;;;;;3.20;70.80;101506.19;4902576;28;20057;-59
2023/04/02 08:22:38;;;;;;;33.50;16.52;;;;;;;3.17;71.31;101500.91;4903882;28;20641;-59
2023/04/02 08:25:11;;;;;;;46.40;21.95;;;;;;;3.17;71.21;101516.41;4904910;28;20076;-59
2023/04/02 08:27:42;;;;;;;25.05;12.57;;;;;;;2.99;71.61;101470.16;4905446;28;20044;-59
2023/04/02 08:30:15;;;;;;;30.20;13.10;;;;;;;3.16;71.47;101522.41;4903560;28;21130;-59
2023/04/02 08:32:48;;;;;;;29.17;12.07;;;;;;;2.90;71.79;101501.72;4895729;28;20101;-58
2023/04/02 08:35:22;;;;;;;24.67;12.05;;;;;;;2.80;71.73;101503.13;4905330;28;20060;-59
2023/04/02 08:37:53;;;;;;;25.95;12.32;;;;;;;2.71;72.09;101517.41;4904379;28;20129;-58
2023/04/02 08:40:30;;;;;;;24.95;11.40;;;;;;;2.49;72.27;101518.31;4900363;28;20060;-58
2023/04/02 08:43:31;;;;;;;29.17;14.00;;;;;;;2.21;72.68;101522.44;4904844;28;20052;-58
2023/04/02 08:46:10;;;;;;;26.55;13.35;;;;;;;1.97;73.79;101517.22;4904984;28;20067;-59
2023/04/02 08:48:49;;;;;;;31.58;13.52;;;;;;;1.95;74.16;101498.28;4893713;28;20055;-59
2023/04/02 08:51:25;;;;;;;27.52;12.93;;;;;;;1.45;74.39;101418.19;4893239;28;20471;-59
2023/04/02 08:54:01;;;;;;;23.35;12.05;;;;;;;2.02;74.91;101520.00;4894099;28;20056;-58
2023/04/02 08:56:39;;;;;;;29.42;12.73;;;;;;;1.98;74.87;101519.00;4902726;28;20052;-58
2023/04/02 08:59:20;;;;;;;26.10;11.77;;;;;;;1.73;75.07;101518.03;4893456;28;20145;-58
2023/04/02 09:01:57;;;;;;;28.10;12.68;;;;;;;1.47;75.60;101518.69;4894041;28;20052;-58
2023/04/02 09:04:35;;;;;;;24.10;11.88;;;;;;;1.35;76.28;101526.81;4895738;28;20048;-58
2023/04/02 09:07:07;;;;;;;28.67;11.23;;;;;;;1.33;76.73;101520.72;4893412;28;20055;-58
2023/04/02 09:09:40;;;;;;;22.10;10.73;;;;;;;1.27;76.67;101526.50;4902496;28;20345;-58
2023/04/02 09:12:26;;;;;;;29.73;11.73;;;;;;;1.18;77.43;101525.22;4904873;28;20064;-58
2023/04/02 09:15:07;;;;;;;24.10;11.77;;;;;;;1.20;77.30;101529.63;4892118;28;20402;-58
2023/04/02 09:17:47;;;;;;;25.30;10.77;;;;;;;1.17;77.07;101534.63;4891729;28;20056;-58
2023/04/02 09:20:27;;;;;;;27.17;13.88;;;;;;;1.01;77.36;101537.38;4893760;28;20147;-58
2023/04/02 09:22:59;;;;;;;30.10;16.08;;;;;;;0.81;78.16;101519.38;4895931;28;20048;-58
2023/04/02 09:25:32;;;;;;;26.58;14.63;;;;;;;0.63;78.43;101498.88;4903244;28;20585;-58
2023/04/02 09:28:05;;;;;;;26.35;11.43;;;;;;;0.89;78.73;101562.56;4902732;28;20499;-58
2023/04/02 09:30:54;;;;;;;29.77;12.60;;;;;;;0.93;78.81;101561.91;4894145;28;20501;-57
2023/04/02 09:33:44;;;;;;;24.35;11.75;;;;;;;0.95;78.96;101567.97;4895208;28;20065;-57
2023/04/02 09:36:35;;;;;;;28.50;12.00;;;;;;;0.92;78.16;101578.16;4886611;28;20130;-57
2023/04/02 09:39:08;;;;;;;27.10;11.95;;;;;;;0.65;78.52;101563.28;4893940;28;20728;-58
2023/04/02 09:41:40;;;;;;;25.55;11.27;;;;;;;0.62;78.92;101568.25;4902266;28;20167;-58
2023/04/02 09:44:31;;;;;;;28.33;12.63;;;;;;;0.65;79.22;101565.84;4901603;28;20052;-57
2023/04/02 09:47:04;;;;;;;24.38;11.65;;;;;;;0.43;78.94;101552.00;4894479;28;20040;-57
2023/04/02 09:49:37;;;;;;;27.98;11.43;;;;;;;0.47;79.42;101583.88;4895892;28;20054;-57
2023/04/02 09:52:22;;;;;;;33.17;13.10;;;;;;;-0.14;79.81;101489.41;4902835;28;20452;-57
2023/04/02 09:55:20;;;;;;;31.10;12.45;;;;;;;0.60;80.46;101569.88;4892721;28;20139;-58
2023/04/02 09:58:07;;;;;;;27.88;13.52;;;;;;;0.47;80.08;101539.28;4904097;28;20479;-57
2023/04/02 10:00:39;;;;;;;57.10;29.90;;;;;;;0.63;79.76;101575.19;4883115;28;20110;-57
2023/04/02 10:03:25;;;;;;;54.80;26.95;;;;;;;0.45;79.82;101569.19;4902336;28;20052;-58
2023/04/02 10:06:12;;;;;;;46.67;23.65;;;;;;;0.15;79.65;101564.38;4895927;28;21018;-58
2023/04/02 10:08:46;;;;;;;31.10;14.98;;;;;;;0.18;80.66;101583.41;4892650;28;20052;-57
2023/04/02 10:11:22;;;;;;;30.17;15.73;;;;;;;0.28;81.17;101587.31;4891714;28;20079;-57
2023/04/02 10:14:04;;;;;;;32.22;13.57;;;;;;;0.13;80.71;101576.31;4894063;28;20052;-58
2023/04/02 10:16:40;;;;;;;32.00;13.98;;;;;;;0.13;80.51;101589.16;4896740;28;20046;-58
2023/04/02 10:19:19;;;;;;;30.30;13.85;;;;;;;0.08;80.98;101588.06;4902818;28;20417;-57
2023/04/02 10:21:52;;;;;;;27.48;13.80;;;;;;;-0.03;80.75;101588.41;4892152;28;20475;-57
2023/04/02 10:24:29;;;;;;;28.00;14.70;;;;;;;-0.13;81.83;101588.78;4904019;28;20064;-58
2023/04/02 10:27:11;;;;;;;33.05;15.90;;;;;;;-0.22;82.21;101590.91;4892379;28;20070;-58
2023/04/02 10:30:01;;;;;;;37.88;16.25;;;;;;;-0.33;82.17;101599.78;4894333;28;20098;-58
2023/04/02 10:32:38;;;;;;;29.05;15.20;;;;;;;-0.36;82.74;101599.63;4892989;28;20102;-57
2023/04/02 10:35:18;;;;;;;38.47;16.25;;;;;;;-0.37;82.90;101593.63;4895105;28;20494;-58
2023/04/02 10:38:16;;;;;;;36.67;17.50;;;;;;;-0.41;83.31;101601.09;4893522;28;20376;-59
2023/04/02 10:40:54;;;;;;;44.33;17.83;;;;;;;-0.55;83.65;101598.72;4883125;28;20086;-58
2023/04/02 10:44:05;;;;;;;37.92;17.10;;;;;;;-0.51;83.79;101615.16;4892338;28;20132;-58
2023/04/02 10:47:02;;;;;;;34.50;17.15;;;;;;;-0.53;84.21;101621.91;4903474;28;20052;-58
2023/04/02 10:49:42;;;;;;;45.70;18.13;;;;;;;-0.60;84.53;101624.94;4893194;28;20496;-58
2023/04/02 10:52:21;;;;;;;34.43;17.23;;;;;;;-0.71;84.76;101620.16;4894064;28;20083;-58
2023/04/02 10:54:54;;;;;;;31.70;16.35;;;;;;;-0.68;84.94;101622.88;4891397;28;20062;-58
2023/04/02 10:57:38;;;;;;;36.63;16.73;;;;;;;-0.73;84.76;101623.44;4897210;28;20695;-58
2023/04/02 11:00:21;;;;;;;42.85;17.85;;;;;;;-0.92;85.11;101607.13;4892485;28;20469;-59
2023/04/02 11:03:00;;;;;;;32.95;15.90;;;;;;;-0.74;85.13;101626.84;4890430;28;20072;-59
2023/04/02 11:05:39;;;;;;;36.42;17.65;;;;;;;-0.72;85.20;101645.78;4892965;28;20058;-58
2023/04/02 11:08:17;;;;;;;36.38;16.75;;;;;;;-0.77;85.62;101616.41;4893947;28;20052;-58
2023/04/02 11:10:51;;;;;;;37.03;15.90;;;;;;;-0.68;85.35;101629.69;4892510;28;20405;-59
2023/04/02 11:13:31;;;;;;;36.53;17.75;;;;;;;-0.85;85.29;101586.91;4902847;28;20056;-58
2023/04/02 11:16:06;;;;;;;34.10;16.48;;;;;;;-0.47;85.42;101633.38;4892792;28;20060;-58
2023/04/02 11:18:37;;;;;;;35.83;16.80;;;;;;;-0.85;85.12;101581.75;4893874;28;20056;-59
2023/04/02 11:21:12;;;;;;;43.35;18.80;;;;;;;-0.55;85.34;101633.78;4904971;28;20049;-58
2023/04/02 11:23:59;;;;;;;35.55;16.08;;;;;;;-1.02;85.54;101568.06;4916464;28;20055;-58
2023/04/02 11:26:36;;;;;;;33.95;15.40;;;;;;;-0.62;86.09;101621.41;4896374;28;20052;-59
2023/04/02 11:29:21;;;;;;;27.35;15.93;;;;;;;-0.62;86.40;101637.72;4895459;28;20045;-58
2023/04/02 11:32:14;;;;;;;33.15;15.93;;;;;;;-0.69;86.79;101613.44;4907035;28;20059;-59
2023/04/02 11:35:03;;;;;;;34.17;16.63;;;;;;;-0.56;87.33;101632.03;4892421;28;20077;-58
2023/04/02 11:37:38;;;;;;;35.92;15.82;;;;;;;-0.84;86.99;101599.81;4894813;28;20044;-58
2023/04/02 11:40:46;;;;;;;31.35;13.70;;;;;;;-0.75;88.18;101625.97;4905097;28;20048;-58
2023/04/02 11:43:58;;;;;;;31.77;15.05;;;;;;;-0.62;89.02;101624.91;4896996;28;20131;-58
2023/04/02 11:46:50;;;;;;;27.83;15.50;;;;;;;-0.63;88.66;101617.97;4890766;28;20122;-59
2023/04/02 11:49:41;;;;;;;37.00;15.93;;;;;;;-0.68;88.79;101601.47;4894162;28;20475;-58
2023/04/02 11:52:24;;;;;;;32.30;15.30;;;;;;;-0.67;88.61;101613.50;4896035;28;20107;-59
2023/04/02 11:55:19;;;;;;;31.27;15.27;;;;;;;-0.92;89.13;101584.03;4896493;28;20052;-58
2023/04/02 11:58:12;;;;;;;36.20;16.90;;;;;;;-0.81;89.10;101624.75;4893889;28;20098;-58
2023/04/02 12:01:02;;;;;;;30.73;14.85;;;;;;;-0.87;89.29;101626.19;4907458;28;20049;-56
2023/04/02 12:04:02;;;;;;;39.10;15.80;;;;;;;-0.92;89.56;101622.53;4881135;28;20110;-57